Date,TemperatureHighF,TemperatureAvgF,TemperatureLowF,DewpointHighF,DewpointAvgF,DewpointLowF,HumidityHigh,HumidityAvg,HumidityLow,PressureMaxIn,PressureMinIn,WindSpeedMaxMPH,WindSpeedAvgMPH,GustSpeedMaxMPH,PrecipitationSumIn
2014-1-4,31.8,25.9,16.7,23.4,15.3,7.9,79,64,56,29.97,29.85,23,13,23,0.10
2014-1-5,29.4,28.0,0.0,26.6,24.6,-3.0,90,87,28,29.98,29.81,10,1,10,0.00
2014-1-7,-1.4,-1.5,-1.6,-7.5,-7.6,-7.7,75,75,75,30.29,30.28,5,5,5,0.00
2014-1-8,27.6,12.1,0.8,21.1,6.1,-4.0,82,77,69,30.50,30.35,6,1,6,0.16
2014-1-9,21.0,12.5,-2.2,17.4,7.5,-7.0,86,80,74,30.53,30.26,13,2,13,0.00
2014-1-10,36.6,31.4,0.0,34.5,28.9,-3.0,92,90,87,30.16,29.77,12,4,12,0.00
2014-1-11,41.9,35.9,32.7,39.5,33.0,28.1,92,89,83,29.72,29.38,17,5,17,0.00
2014-1-12,42.0,33.8,3.2,30.4,27.3,-0.6,85,77,63,29.90,29.65,22,7,22,0.04
2014-1-13,50.9,41.5,32.9,36.6,32.5,27.0,83,70,56,29.74,29.54,18,7,18,0.00
2014-1-14,36.6,29.7,24.0,27.0,22.8,18.3,86,75,63,29.79,29.61,28,6,28,0.04
2014-1-15,24.9,21.3,13.2,20.5,15.3,7.6,85,78,68,30.02,29.78,20,7,20,0.00
2014-1-16,28.5,21.5,13.2,23.7,16.4,7.6,84,81,77,29.91,29.52,21,10,21,0.00
2014-1-17,26.6,19.6,13.6,19.4,13.4,0.0,84,77,71,29.94,29.64,19,4,19,0.00
2014-1-18,20.3,17.5,13.1,15.3,11.5,7.7,85,77,69,29.92,29.79,12,3,17,0.00
2014-1-19,37.4,23.1,16.8,29.5,17.3,0.0,87,79,70,29.84,29.51,22,8,22,0.06
2014-1-20,37.2,25.2,0.0,29.3,19.4,-6.0,81,79,73,30.04,29.51,18,3,18,0.00
2014-1-21,33.2,17.7,7.8,12.8,5.0,-1.5,75,58,41,30.24,30.03,87,3,87,0.00
2014-1-22,14.1,10.0,0.0,9.3,3.3,-4.0,82,73,61,30.16,29.89,21,6,21,0.00
2014-1-23,37.2,15.7,0.0,20.0,7.7,0.0,87,71,45,30.51,30.02,22,6,22,0.00
2014-1-24,21.3,12.1,-5.8,18.0,3.3,-11.8,87,68,55,30.49,29.53,26,15,26,0.29
2014-1-25,30.7,19.5,0.0,27.5,12.1,-2.3,92,73,64,29.82,29.34,34,10,34,0.16
2014-1-26,31.8,17.8,5.3,22.9,11.1,-0.7,87,75,59,29.79,29.37,22,6,22,0.02
2014-1-27,17.7,7.1,0.0,8.6,0.6,-4.5,87,74,66,30.35,29.60,24,8,24,0.21
2014-1-28,8.9,3.9,-8.3,0.0,-4.4,-13.7,78,68,58,30.46,30.24,62,7,62,0.00
2014-1-29,24.2,13.2,4.8,6.9,2.0,-3.0,72,61,44,30.25,30.09,20,6,20,0.00
2014-1-30,32.1,24.1,16.5,27.6,13.5,5.1,83,64,52,30.09,29.72,24,11,30,0.12
2014-1-31,32.1,27.0,22.8,27.6,20.1,0.0,84,76,66,30.17,29.87,16,2,16,0.00
2014-2-1,32.9,25.9,24.0,27.9,21.4,19.0,86,83,80,30.12,29.84,3,0,3,0.00
2014-2-3,38.4,22.8,8.0,20.2,11.0,0.8,76,61,46,30.39,30.34,10,1,10,0.00
2014-2-4,27.6,16.9,5.0,16.3,9.2,-1.0,79,72,58,30.43,30.13,6,0,6,0.00
2014-2-5,34.7,22.9,19.5,22.2,15.9,12.5,88,75,59,30.40,30.01,22,5,22,0.00
2014-2-6,19.5,10.3,2.4,12.5,4.0,-3.7,82,75,70,30.41,30.34,18,7,18,0.00
2014-2-7,16.8,8.9,2.8,4.2,0.5,-4.0,78,69,56,30.39,30.32,21,7,21,0.00
2014-2-8,17.7,8.7,4.8,9.7,1.6,-2.3,81,72,59,30.35,30.14,13,3,13,0.00
2014-2-9,22.6,16.3,14.1,13.6,10.2,6.8,84,77,67,30.24,30.09,14,2,14,0.00
2014-2-10,23.5,13.8,8.0,11.1,5.9,0.6,81,71,54,30.39,30.22,15,3,15,0.00
2014-2-11,10.5,7.5,2.1,4.3,1.4,-3.8,77,76,74,30.46,30.37,6,1,6,0.00
2014-2-12,27.1,20.4,13.6,10.9,7.8,0.0,67,58,49,30.23,29.98,9,2,13,0.00
2014-2-13,31.6,22.2,9.6,24.9,11.4,2.1,76,63,46,29.99,29.42,20,4,20,0.00
2014-2-14,26.7,23.0,20.8,19.8,16.2,14.5,80,75,68,29.83,29.45,23,5,23,0.00
2014-2-15,34.7,22.7,14.9,21.0,14.7,7.1,80,72,53,30.04,29.82,11,2,11,0.00
2014-2-16,34.3,19.4,13.2,24.4,13.3,7.9,82,77,64,30.28,29.87,11,1,11,0.00
2014-2-17,24.9,18.9,14.1,21.7,14.0,9.1,89,81,70,30.27,29.61,24,5,24,0.00
2014-2-18,48.0,34.9,22.1,30.3,25.0,17.6,87,69,48,29.95,29.61,23,8,23,0.00
2014-2-19,48.0,38.3,32.1,32.7,28.8,25.9,84,69,48,30.00,29.58,14,4,17,0.00
2014-2-20,49.6,37.6,32.5,47.6,33.5,26.6,94,85,76,29.98,29.24,28,5,28,0.30
2014-2-21,36.6,33.5,30.0,30.4,24.1,17.1,84,69,49,29.77,29.36,30,14,34,2.80
2014-2-22,34.7,30.4,26.7,25.1,17.2,12.8,69,58,50,30.00,29.76,20,6,20,0.00
2014-2-23,30.3,25.5,21.3,17.3,13.7,11.0,70,61,49,30.15,29.98,22,6,22,0.00
2014-2-24,29.3,21.9,17.4,12.7,10.6,9.3,71,62,48,30.21,30.11,25,6,25,0.00
2014-2-25,23.7,20.4,14.7,12.2,9.9,0.0,70,64,54,30.16,30.03,18,5,18,0.00
2014-2-26,17.7,12.5,9.1,7.2,1.3,-1.4,70,61,49,30.12,29.58,21,10,25,0.02
2014-2-27,19.4,12.7,2.8,9.9,3.1,-3.7,76,65,53,30.16,29.54,24,7,24,0.63
2014-2-28,21.9,6.3,-1.3,4.1,-3.5,-13.0,77,65,45,30.21,30.05,18,4,18,0.00
2014-3-1,27.6,23.4,17.2,22.1,16.5,11.1,80,75,68,30.27,29.98,13,3,18,0.00
2014-3-2,28.9,17.2,11.1,16.8,8.9,3.6,78,70,57,30.35,30.23,16,2,18,0.00
2014-3-3,33.6,13.4,0.5,13.3,1.4,-6.5,77,60,41,30.55,30.34,10,1,10,0.00
2014-3-4,30.0,17.3,4.8,12.0,5.3,-3.8,69,60,45,30.35,30.15,10,2,10,0.00
2014-3-5,38.8,25.2,17.9,21.6,13.7,7.7,76,62,44,30.42,30.21,10,1,10,0.00
2014-3-6,45.5,24.7,11.3,23.5,11.8,3.3,71,59,38,30.42,30.11,9,2,16,0.00
2014-3-7,47.1,32.3,16.3,29.7,19.8,10.5,80,62,41,30.11,29.88,14,3,14,0.00
2014-3-8,37.9,30.2,21.9,30.0,23.6,16.2,81,76,72,30.24,29.94,17,5,17,0.00
2014-3-9,39.9,27.8,13.6,31.5,20.0,9.3,87,73,51,30.22,29.81,20,6,20,0.00
2014-3-10,55.0,45.9,39.3,37.6,34.1,30.9,87,64,49,29.81,29.64,23,9,23,0.00
2014-3-11,57.0,43.6,37.0,40.7,34.8,31.0,83,72,52,29.75,29.65,16,2,16,0.00
2014-3-12,38.8,29.4,17.2,31.4,22.0,9.7,87,74,54,30.05,29.61,20,4,20,0.00
2014-3-13,32.7,20.0,3.0,26.9,12.2,-2.3,80,72,60,30.12,29.83,20,4,21,0.00
2014-3-14,50.9,39.5,32.7,34.9,30.1,26.9,79,69,49,29.83,29.54,29,10,29,0.06
2014-3-15,46.7,34.9,30.5,30.4,26.3,18.6,82,71,51,30.26,29.80,13,4,14,0.00
2014-3-16,39.0,26.5,15.4,20.8,9.6,1.6,67,49,36,30.33,30.16,16,3,16,0.00
2014-3-17,38.1,25.7,10.5,19.4,10.5,1.3,67,53,37,30.13,29.82,17,4,17,0.00
2014-3-18,48.5,35.9,24.4,35.0,26.3,18.3,79,69,52,29.91,29.73,20,4,20,0.00
2014-3-19,44.4,39.5,33.9,41.7,35.5,28.9,90,86,73,29.92,29.56,20,5,20,0.00
2014-3-20,51.2,37.2,31.8,34.7,28.1,22.5,82,70,46,30.05,29.92,16,3,16,0.00
2014-3-21,51.2,39.6,28.0,42.1,31.1,21.2,86,72,58,30.04,29.69,19,4,19,0.00
2014-3-22,46.0,36.6,33.6,37.2,30.9,29.0,84,80,71,30.16,29.74,18,4,18,0.00
2014-3-23,36.3,26.0,18.6,20.4,15.6,9.0,74,65,45,30.38,30.26,14,2,14,0.00
2014-3-24,38.3,25.4,16.3,19.7,12.0,6.3,77,59,37,30.34,30.05,15,3,15,0.00
2014-3-25,35.2,26.7,23.1,19.7,14.2,8.6,77,59,50,30.16,29.92,19,6,19,0.00
2014-3-26,42.9,29.2,17.4,21.0,14.0,7.7,70,54,40,30.29,30.02,13,4,13,0.00
2014-3-27,47.6,39.0,33.4,41.4,29.2,17.2,84,69,44,30.03,29.52,23,9,23,0.00
2014-3-28,53.4,38.2,29.8,47.7,33.2,23.7,90,83,70,30.24,29.47,28,8,28,0.12
2014-3-29,33.2,31.6,29.8,28.1,26.7,24.1,83,82,79,30.25,30.21,7,1,7,0.00
2014-3-30,24.0,23.7,23.7,20.1,20.1,20.1,86,86,86,30.22,30.21,0,0,0,0.00
2014-3-31,66.9,52.4,36.1,37.2,33.2,27.5,73,51,29,30.11,29.85,21,6,21,0.05
2014-4-1,60.6,48.5,36.6,42.2,34.3,24.9,65,58,39,30.12,29.73,23,7,23,0.00
2014-4-2,54.6,43.2,32.1,33.4,28.7,25.4,77,58,42,30.20,30.09,14,3,14,0.00
2014-4-3,46.5,39.9,34.3,38.2,33.7,30.2,88,80,54,30.12,29.69,20,4,22,0.00
2014-4-4,45.8,39.8,37.2,43.9,37.2,33.9,93,90,85,29.72,29.45,18,6,18,0.00
2014-4-5,54.3,45.3,36.1,32.4,26.1,19.7,59,47,32,30.29,30.20,14,2,14,0.00
2014-4-6,64.0,44.4,29.4,35.6,26.2,18.1,65,50,33,30.22,30.00,13,2,13,0.00
2014-4-7,59.5,44.9,35.0,33.8,29.8,25.8,71,57,36,30.01,29.60,10,1,10,0.00
2014-4-8,59.1,44.2,36.6,40.1,33.5,28.5,77,67,48,29.93,29.60,12,3,12,0.00
2014-4-9,62.4,52.5,35.4,39.5,33.3,29.5,79,50,35,30.04,29.93,19,4,19,0.00
2014-4-10,63.1,56.9,43.5,41.9,38.6,32.3,70,51,43,29.97,29.74,22,9,22,0.00
2014-4-11,71.9,53.3,34.5,39.4,31.4,22.9,82,50,19,30.08,29.94,10,1,10,0.00
2014-4-12,76.4,61.9,48.0,55.7,41.7,25.9,59,48,33,30.09,29.79,27,6,27,0.08
2014-4-13,68.0,63.4,59.7,58.7,53.2,45.7,86,70,54,29.87,29.60,22,6,22,0.02
2014-4-14,67.2,43.2,28.9,58.2,37.1,24.4,85,79,69,29.95,29.43,30,10,30,0.22
2014-4-15,42.9,33.0,26.9,24.4,18.8,14.6,83,57,39,30.23,29.92,22,6,22,0.00
2014-4-16,49.8,45.2,36.3,25.6,22.7,20.2,53,41,34,30.34,30.21,23,8,23,0.00
2014-4-17,62.9,50.1,37.2,38.3,31.7,25.0,62,50,39,30.29,30.19,22,5,22,0.00
2014-4-18,59.9,49.7,41.0,40.4,36.1,26.0,73,60,46,30.40,30.26,19,3,19,0.00
2014-4-19,67.6,57.6,33.4,40.1,36.0,24.9,77,46,34,30.41,30.30,14,4,14,0.00
2014-4-20,81.6,60.5,41.7,44.7,35.6,27.5,61,41,26,30.34,30.12,14,4,15,0.00
2014-4-21,79.5,63.2,55.4,56.3,43.9,33.3,91,52,31,30.13,29.87,17,4,17,0.00
2014-4-22,57.7,47.4,39.3,55.1,36.5,28.6,92,67,46,30.09,29.84,23,8,23,0.02
2014-4-23,56.1,43.8,33.8,36.2,30.0,26.0,75,59,43,30.20,30.08,17,4,17,0.00
2014-4-24,59.5,52.0,42.4,36.1,29.9,24.4,62,45,27,30.11,29.78,22,6,24,0.00
2014-4-25,66.0,49.1,0.0,45.1,38.0,-14.7,85,66,42,29.87,29.66,14,4,14,0.00
2014-4-26,54.8,49.0,42.8,39.6,34.6,30.8,65,58,48,30.10,29.87,18,5,18,0.00
2014-4-27,42.4,41.8,41.5,34.0,33.7,33.5,73,73,72,30.12,30.09,12,5,12,0.00
2014-4-28,59.1,44.9,0.0,44.4,31.1,-14.3,81,56,50,29.96,29.66,22,8,22,1.33
2014-4-29,71.4,56.2,48.3,54.9,46.8,43.2,92,73,39,29.78,29.48,22,5,22,0.00
2014-4-30,57.9,50.7,41.5,46.4,43.4,34.4,85,76,64,29.89,29.77,22,4,22,0.00
2014-5-1,49.2,44.3,41.0,41.6,39.3,34.1,89,83,73,29.87,29.75,19,8,20,0.00
2014-5-2,44.9,44.6,44.4,41.7,41.2,40.8,89,88,86,29.84,29.80,14,7,14,0.00
2014-5-9,75.7,65.7,52.3,62.3,54.8,42.0,88,69,50,29.97,29.80,27,9,27,0.40
2014-5-10,77.7,61.9,46.2,49.1,44.3,39.8,81,55,30,30.09,29.97,17,2,17,0.00
2014-5-11,87.6,69.2,52.8,61.9,51.4,42.1,78,55,37,30.10,29.99,17,2,17,0.00
2014-5-12,84.3,73.6,62.2,70.1,64.6,57.0,85,74,61,30.07,29.99,21,5,21,0.00
2014-5-13,75.9,63.2,51.4,68.0,57.9,45.9,91,83,67,30.22,29.95,19,4,19,0.00
2014-5-14,54.5,50.1,44.4,46.3,43.1,39.2,87,77,66,30.24,29.96,12,1,13,0.00
2014-5-15,55.7,44.8,37.5,45.0,39.0,31.6,90,81,55,30.10,29.82,22,4,22,0.11
2014-5-16,46.2,39.8,33.4,39.3,33.8,29.0,87,79,69,30.10,30.03,12,1,12,0.00
2014-5-17,63.3,49.0,36.1,42.2,35.2,30.0,82,62,36,30.23,30.07,13,2,13,0.00
2014-5-18,71.4,55.1,38.4,41.6,37.4,32.0,78,54,29,30.31,30.23,20,3,20,0.00
2014-5-19,71.4,59.3,46.0,42.3,39.7,36.4,69,50,33,30.32,30.11,87,4,87,0.00
2014-5-21,87.0,73.5,63.5,66.5,60.2,50.4,90,65,43,30.04,29.94,9,1,9,0.00
2014-5-22,74.8,62.0,48.9,52.5,48.1,42.2,79,62,45,30.23,30.03,9,1,9,0.00
2014-5-23,73.2,59.8,48.7,50.0,45.9,41.6,80,62,42,30.31,30.20,10,1,10,0.00
2014-5-24,80.6,61.5,43.1,54.4,46.1,38.0,86,61,36,30.29,30.22,8,1,9,0.00
2014-5-25,91.5,71.0,50.5,57.2,50.7,43.4,80,53,28,30.24,30.15,8,1,8,0.00
2014-5-26,94.6,74.3,57.7,66.5,58.2,49.6,83,59,39,30.17,30.04,12,1,12,0.00
2014-5-27,87.6,73.4,63.3,69.9,64.7,57.0,89,76,55,30.13,30.03,19,3,19,0.00
2014-5-28,76.1,63.9,52.5,59.5,54.8,47.8,89,73,53,30.16,30.05,7,0,7,0.00
2014-5-29,92.4,72.5,59.5,64.0,57.6,51.1,86,62,38,30.23,30.13,9,1,9,0.00
2014-5-30,92.8,72.7,58.2,62.2,55.2,50.5,81,57,34,30.30,30.21,11,1,11,0.00
2014-5-31,99.8,76.8,57.9,61.9,55.2,50.3,79,52,27,30.31,30.23,9,1,9,0.00
2014-6-1,92.8,78.1,63.1,64.5,57.0,49.8,64,50,34,30.26,30.08,13,2,13,0.00
2014-6-2,80.9,75.8,68.3,69.2,65.2,60.8,82,70,60,30.13,29.95,82,6,82,0.00
2014-6-3,88.1,75.5,66.5,66.3,58.3,51.4,81,58,33,30.08,29.96,15,3,17,0.00
2014-6-4,68.7,62.8,55.7,60.0,54.3,49.8,85,74,62,30.04,29.92,7,0,7,0.00
2014-6-5,84.7,65.7,48.3,58.4,49.7,43.7,85,61,31,30.08,29.98,8,0,8,0.00
2014-6-6,92.8,68.9,50.1,54.5,47.2,42.7,81,52,19,30.11,30.03,9,0,9,0.00
2014-6-7,96.0,72.4,52.8,60.2,52.2,44.0,77,52,30,30.12,29.95,9,0,9,0.00
2014-6-8,75.5,65.9,56.4,58.7,53.2,47.2,83,65,49,30.12,29.92,14,1,14,0.02
2014-6-9,87.9,68.9,53.2,63.2,54.8,47.3,85,63,43,30.12,30.02,10,0,10,0.00
2014-6-10,76.4,67.5,60.9,63.9,57.9,51.7,86,72,57,30.04,29.88,4,0,4,0.00
2014-6-11,84.7,67.7,59.1,69.8,61.3,53.5,91,80,58,29.88,29.78,10,0,10,0.00
2014-6-12,80.4,65.7,55.9,64.4,58.1,52.7,91,78,56,29.93,29.82,14,2,14,0.00
2014-6-13,79.8,67.3,55.4,56.0,49.9,45.4,75,56,35,30.14,29.92,15,1,15,0.00
2014-6-14,90.6,68.1,48.3,55.5,48.1,42.0,80,54,28,30.22,30.11,20,1,20,0.00
2014-6-15,84.3,72.5,58.6,67.3,55.8,46.4,73,57,43,30.15,29.96,19,2,19,0.00
2014-6-16,97.8,82.1,70.1,67.7,65.0,61.9,77,59,34,30.21,30.06,17,2,17,0.00
2014-6-17,96.2,82.8,76.1,71.0,67.8,63.9,77,62,39,30.13,29.95,18,3,18,0.00
2014-6-18,85.2,74.3,63.6,73.6,66.8,58.6,87,78,61,30.16,29.98,13,1,13,0.00
2014-6-19,89.9,76.3,62.7,71.0,66.2,58.8,89,72,53,30.22,30.11,9,1,9,0.00
2014-6-20,80.9,71.2,66.0,70.0,65.0,61.3,87,81,68,30.22,30.06,15,1,15,0.00
2014-6-23,87.4,75.0,69.9,74.7,68.7,66.4,89,81,63,30.00,29.93,20,0,20,0.04
2014-6-24,85.2,74.2,69.0,72.1,68.3,66.0,93,83,64,30.04,29.96,10,0,10,0.00
2014-6-28,87.6,83.0,77.0,72.6,70.8,69.0,77,67,57,30.21,30.12,11,1,11,0.00
2014-6-29,90.3,79.6,73.7,71.9,69.5,66.6,85,72,52,30.16,30.08,17,3,17,0.00
2014-6-30,91.9,79.2,71.6,74.2,70.7,68.2,90,76,54,30.14,29.93,16,2,16,0.00
2014-7-1,83.8,75.2,66.7,67.0,64.5,62.0,90,71,50,29.93,29.80,18,6,18,0.00
2014-7-2,78.6,69.0,61.3,63.6,58.2,51.4,83,69,49,30.13,29.91,15,3,15,0.00
2014-7-3,80.2,64.7,55.0,58.8,53.0,48.9,86,69,37,30.29,30.11,8,1,8,0.00
2014-7-4,88.8,80.9,62.2,59.7,55.8,50.8,68,43,18,30.42,30.39,6,1,6,0.00
2014-7-5,78.9,69.3,0.0,59.5,53.9,-7.7,80,59,44,30.40,30.18,10,1,10,0.00
2014-7-6,84.9,74.7,64.2,72.7,64.5,56.6,78,71,63,30.18,29.89,16,3,16,0.00
2014-7-7,93.7,78.4,68.3,73.9,68.1,63.3,89,73,44,29.92,29.83,17,3,20,0.00
2014-7-8,83.4,72.4,67.6,68.6,64.7,59.2,89,77,52,29.95,29.72,18,1,18,0.00
2014-7-9,87.4,70.4,63.1,62.6,59.1,56.6,82,69,43,30.08,29.94,7,0,7,0.00
2014-7-10,89.0,65.1,56.8,60.0,54.1,51.3,83,71,33,30.31,30.17,6,0,6,0.00
2014-7-11,90.5,70.7,55.9,64.0,57.3,50.0,84,65,39,30.33,30.23,7,0,7,0.00
2014-7-12,78.9,73.5,67.6,71.1,65.8,60.1,86,77,70,30.26,29.99,14,1,14,0.00
2014-7-13,86.1,75.3,66.9,72.8,65.8,61.6,92,74,47,30.08,29.96,21,2,21,0.00
2014-7-14,81.3,70.9,62.4,66.4,62.5,56.8,89,75,59,30.03,29.92,9,0,9,0.00
2014-7-15,73.7,64.4,59.5,56.9,53.9,50.9,80,69,54,30.06,29.92,16,1,16,0.00
2014-7-16,78.2,65.4,57.3,56.4,52.7,48.9,75,64,46,30.15,30.05,9,0,9,0.00
2014-7-17,87.4,66.9,49.6,57.9,51.2,44.7,88,61,33,30.25,30.14,17,1,17,0.00
2014-7-18,84.9,70.2,55.7,57.8,53.8,49.8,81,59,35,30.30,30.22,5,0,6,0.00
2014-7-19,90.3,72.5,56.1,65.0,58.1,50.5,84,63,41,30.22,30.14,6,0,6,0.00
2014-7-20,92.3,74.5,59.7,64.9,59.3,54.2,84,62,39,30.19,30.13,5,0,5,0.00
2014-7-21,93.7,76.5,61.5,68.5,63.0,56.1,84,65,43,30.25,30.16,10,1,10,0.00
2014-7-22,90.6,77.8,65.8,72.3,67.3,61.0,86,71,53,30.23,30.12,14,2,14,0.00
2014-7-23,80.4,71.8,64.2,72.0,60.9,54.9,86,70,49,30.25,30.12,14,2,14,0.00
2014-7-24,84.7,69.2,57.7,59.7,54.7,50.0,80,62,40,30.26,30.16,8,0,8,0.00
2014-7-25,76.1,64.5,51.6,60.2,54.3,46.3,85,70,51,30.20,30.03,13,1,13,0.00
2014-7-26,80.7,69.8,60.0,68.3,61.8,54.7,86,76,65,30.05,29.90,8,0,8,0.00
2014-7-27,86.9,73.8,64.9,72.1,65.5,58.0,92,77,53,29.97,29.79,14,2,14,0.02
2014-7-28,70.8,63.4,57.9,58.0,53.6,49.4,81,71,52,30.17,29.96,16,2,16,0.00
2014-7-29,80.7,65.1,50.7,61.8,55.1,46.3,89,71,48,30.16,30.08,12,1,12,0.00
2014-7-30,82.2,67.5,55.9,63.5,58.1,52.1,89,73,53,30.15,30.08,11,0,11,0.00
2014-7-31,85.6,69.2,55.5,63.4,57.9,51.7,89,70,45,30.16,30.10,13,2,13,0.00
2014-8-1,89.7,72.0,60.4,65.4,61.1,56.5,89,70,43,30.23,30.15,8,0,9,0.00
2014-8-2,90.8,72.4,57.5,68.3,60.6,52.7,87,69,47,30.26,30.18,6,0,6,0.00
2014-8-3,87.8,71.8,56.8,66.2,60.0,52.0,88,68,48,30.26,30.20,8,1,8,0.00
2014-8-4,91.2,75.6,64.5,68.5,64.2,59.3,87,70,46,30.24,30.18,13,1,13,0.00
2014-8-5,87.4,73.1,65.6,71.5,65.1,60.0,90,77,57,30.21,30.15,11,1,11,0.00
2014-8-6,90.1,74.1,61.8,69.5,63.3,57.8,88,71,46,30.21,30.12,22,0,22,0.00
2014-8-7,89.7,73.7,58.4,65.9,59.6,53.8,85,64,42,30.23,30.17,5,0,5,0.00
2014-8-8,91.0,75.0,59.7,63.1,58.7,53.9,83,60,36,30.22,30.17,12,0,12,0.00
2014-8-9,91.7,75.7,62.4,63.8,59.2,55.6,82,60,32,30.23,30.18,8,0,8,0.00
2014-8-10,93.7,76.1,63.3,71.6,62.8,54.9,78,64,48,30.21,30.09,6,0,6,0.00
2014-8-11,84.0,73.2,67.1,71.6,65.9,63.0,89,78,63,30.10,29.90,8,0,8,0.00
2014-8-12,68.7,65.3,60.6,64.5,61.1,55.1,90,86,81,30.05,29.83,15,1,15,0.00
2014-8-13,83.8,67.8,53.9,65.4,57.4,50.7,91,71,49,30.13,30.03,10,1,10,0.00
2014-8-14,80.2,65.6,54.3,54.2,50.3,44.1,80,60,36,30.20,30.12,11,1,11,0.00
2014-8-15,80.4,62.4,46.2,57.3,48.8,41.3,86,64,36,30.17,30.07,13,1,13,0.00
2014-8-16,82.2,62.8,55.4,68.5,55.4,49.9,83,77,63,30.07,30.00,15,1,15,0.00
2014-8-17,86.7,75.1,64.9,70.9,66.1,61.3,90,75,58,30.08,30.03,12,1,12,0.00
2014-8-18,82.5,72.4,63.8,70.0,65.0,59.9,89,78,63,30.08,29.93,10,0,10,0.00
2014-8-19,81.6,73.3,66.9,71.6,66.7,62.9,90,80,63,29.94,29.83,21,2,21,0.00
2014-8-20,88.3,76.2,68.3,69.2,66.8,64.4,89,74,52,30.10,29.88,11,1,11,0.00
2014-8-21,80.9,74.2,68.5,73.0,69.0,64.1,90,84,74,30.15,30.05,10,1,10,0.00
2014-8-22,91.5,77.6,70.1,76.8,71.1,67.2,92,81,61,30.16,30.03,13,0,13,0.00
2014-8-23,89.7,77.2,70.3,76.1,71.0,66.5,91,81,63,30.17,30.07,5,0,5,0.00
2014-8-24,89.4,77.8,68.1,74.6,69.0,63.1,86,75,60,30.20,30.14,7,0,7,0.00
2014-8-25,76.4,73.3,71.2,71.1,68.7,67.3,89,85,82,30.20,30.16,2,0,2,0.00
2014-8-26,81.1,71.7,67.8,71.6,67.0,62.9,91,85,71,30.29,30.16,12,0,12,0.04
2014-8-27,87.4,71.4,62.0,65.7,61.4,57.5,89,73,45,30.26,30.21,10,0,10,0.00
2014-8-28,89.2,71.3,57.7,66.7,59.4,51.4,80,67,46,30.25,30.16,6,0,6,0.00
2014-8-29,82.5,72.5,66.5,72.2,65.5,59.8,88,79,70,30.18,30.05,14,1,14,0.00
2014-8-30,83.8,75.4,69.9,71.8,68.8,65.0,88,80,66,30.06,29.98,18,3,18,0.00
2014-8-31,89.2,76.0,66.0,73.6,68.0,62.6,91,78,54,30.09,30.02,18,1,18,0.00
2014-9-1,82.9,74.7,70.3,73.3,68.7,65.4,91,82,64,30.05,29.89,17,3,17,0.00
2014-9-2,87.4,76.1,66.5,69.4,65.8,60.0,89,72,48,30.09,29.97,13,1,13,0.00
2014-9-3,91.2,73.9,61.5,67.8,62.0,57.6,90,69,40,30.16,30.08,8,0,8,0.00
2014-9-4,82.4,73.6,67.2,71.2,65.9,60.2,89,77,67,30.18,30.05,17,1,17,0.04
2014-9-5,90.3,76.8,67.2,76.2,69.7,62.9,88,79,57,30.18,30.05,17,2,17,0.08
2014-9-6,82.5,70.7,56.8,63.1,57.1,49.6,86,65,40,30.28,30.15,19,1,19,0.00
2014-9-7,84.9,66.2,52.1,63.6,55.2,48.0,87,70,43,30.30,30.23,6,0,6,0.00
2014-9-8,82.9,65.5,53.7,62.2,55.0,49.0,87,71,45,30.26,30.12,9,0,9,0.00
2014-9-9,82.2,68.2,60.4,66.4,59.2,54.3,81,74,57,30.15,30.02,10,1,10,0.00
2014-9-10,79.8,70.0,61.1,71.8,64.4,54.6,92,83,76,30.02,29.67,21,3,21,0.09
2014-9-11,61.1,56.3,53.4,54.8,49.9,48.2,85,79,69,30.32,29.91,14,2,14,0.00
2014-9-12,66.3,55.6,48.3,48.9,46.5,44.0,87,73,50,30.38,30.26,6,0,6,0.02
2014-9-13,66.7,55.6,50.5,50.5,45.9,43.2,86,71,54,30.39,30.25,15,1,15,0.02
2014-9-14,68.9,54.0,42.4,49.3,44.0,38.5,89,71,48,30.40,30.25,16,1,16,0.00
2014-9-15,63.3,54.1,47.1,52.6,48.2,42.0,86,81,64,30.25,30.13,14,1,14,0.08
2014-9-16,73.2,58.0,46.0,54.5,48.6,42.6,90,73,45,30.24,30.16,10,0,10,0.00
2014-9-17,76.6,56.5,42.6,52.0,45.6,38.3,88,70,41,30.16,30.06,9,0,9,0.00
2014-9-18,79.8,59.1,44.4,57.3,48.2,40.0,87,70,41,30.23,30.09,8,0,8,0.00
2014-9-19,75.0,61.4,51.4,55.4,50.7,47.6,90,70,45,30.26,30.06,11,1,11,0.00
2014-9-20,79.3,66.6,57.9,66.5,58.8,48.1,90,76,65,30.06,29.85,17,3,17,0.00
2014-9-21,68.7,61.3,54.8,66.0,54.1,45.8,92,77,65,30.18,29.75,20,4,54,0.00
2014-9-22,70.5,56.5,44.9,51.5,44.9,37.8,82,66,49,30.34,30.17,8,1,8,0.00
2014-9-23,78.8,58.0,44.2,54.0,47.4,40.4,88,70,40,30.41,30.33,8,0,8,0.00
2014-9-24,81.3,62.3,48.7,56.7,49.9,43.9,87,67,39,30.45,30.35,6,0,6,0.00
2014-9-25,83.1,64.0,52.7,60.3,53.0,47.2,86,69,45,30.37,30.31,4,0,4,0.00
2014-9-26,89.7,67.4,52.3,62.9,54.5,47.9,86,66,38,30.36,30.31,9,0,9,0.00
2014-9-27,86.7,67.2,53.4,64.1,56.5,49.3,86,70,46,30.35,30.26,9,0,9,0.00
2014-9-28,85.1,66.6,53.2,62.7,56.0,48.8,87,71,46,30.27,30.18,4,0,4,0.00
2014-9-29,83.3,58.7,48.7,61.5,51.3,44.2,89,78,42,30.16,30.01,14,0,14,0.00
2014-9-30,67.8,56.5,52.8,52.3,47.1,44.8,79,71,52,30.11,30.06,12,1,12,0.00
2014-10-1,71.7,59.8,53.2,53.8,49.6,46.8,80,70,52,30.11,30.00,10,1,10,0.00
2014-10-2,75.0,65.2,57.3,66.0,58.6,50.5,90,80,68,30.03,29.80,15,1,15,0.00
2014-10-3,65.1,58.3,47.8,62.2,52.6,38.8,92,82,64,29.83,29.51,18,4,21,0.00
2014-10-4,48.7,42.6,38.1,40.4,35.4,32.1,87,76,63,29.78,29.70,21,6,21,0.00
2014-10-5,57.3,51.6,48.7,39.9,38.1,35.5,71,61,45,29.73,29.69,19,6,19,0.00
2014-10-6,64.0,53.7,45.1,50.1,42.6,37.8,85,68,46,29.74,29.60,16,4,16,0.00
2014-10-7,68.9,55.9,44.9,55.2,46.0,36.6,80,70,54,29.80,29.68,15,4,15,0.00
2014-10-8,66.3,56.7,52.7,48.3,43.6,37.4,71,62,38,30.07,29.85,18,3,18,0.00
2014-10-9,66.7,56.1,41.5,46.6,39.4,33.8,74,55,37,30.19,30.04,10,1,10,0.00
2014-10-10,65.4,50.1,35.7,45.3,38.5,31.0,85,66,46,30.22,30.16,10,0,10,0.00
2014-10-11,69.4,49.5,34.3,43.7,36.4,29.9,86,64,36,30.28,30.18,9,1,9,0.00
2014-10-12,67.1,50.2,35.2,44.0,37.1,30.4,84,63,39,30.22,29.95,12,2,12,0.00
2014-10-13,73.2,63.1,52.8,65.4,57.6,43.6,92,83,63,29.95,29.69,16,2,16,0.04
2014-10-14,68.3,63.3,57.0,62.9,58.9,53.3,90,86,79,29.73,29.57,16,2,16,0.00
2014-10-15,65.4,58.5,53.7,55.3,52.7,50.9,91,82,66,29.87,29.72,7,1,8,0.00
2014-10-16,59.5,55.5,50.1,56.6,51.1,46.6,91,85,79,29.89,29.77,13,2,13,0.00
2014-10-17,63.1,55.7,50.1,52.8,49.5,43.9,90,80,67,29.87,29.60,20,4,20,0.00
2014-10-18,51.4,49.0,47.1,43.9,42.4,40.9,84,78,72,30.10,29.87,20,5,20,0.06
2014-10-25,71.4,63.2,57.0,55.4,49.2,41.7,84,61,51,30.00,29.94,17,3,17,0.00
2014-10-26,65.1,55.2,44.4,43.8,39.9,36.2,73,57,44,30.07,29.95,14,2,14,0.00
2014-10-27,75.9,63.3,45.3,60.3,48.3,35.0,73,59,47,29.97,29.68,22,6,22,0.00
2014-10-28,71.4,59.5,51.4,57.1,46.9,36.3,88,64,48,30.02,29.74,21,7,21,0.00
2014-10-29,51.4,47.3,46.0,38.2,35.3,33.4,67,63,57,30.16,29.99,18,4,18,0.00
2014-10-30,53.4,48.6,44.4,38.7,35.8,34.1,72,61,52,30.16,30.05,14,2,14,0.00
2014-10-31,49.8,40.6,34.3,39.2,32.8,24.4,84,74,63,30.28,29.96,26,6,26,3.20
2014-11-1,54.3,38.1,27.3,31.8,24.3,17.9,75,59,42,30.42,30.28,14,2,14,0.00
2014-11-2,54.5,38.4,24.6,33.8,25.0,19.9,85,62,34,30.41,30.22,12,3,14,0.00
2014-11-3,60.6,48.5,43.8,41.9,28.9,24.6,53,47,41,30.23,30.05,18,9,18,0.00
2014-11-4,59.5,54.3,47.4,49.7,42.9,33.4,91,68,38,30.10,29.94,20,10,20,0.00
2014-11-5,62.6,52.5,46.0,43.4,40.0,35.8,78,64,45,30.18,29.94,17,4,17,0.00
2014-11-6,51.0,44.6,39.7,43.1,37.5,31.5,87,77,53,30.16,29.77,27,9,27,4.96
2014-11-7,46.5,39.5,36.5,33.8,31.1,29.2,81,72,58,30.17,29.89,15,3,15,0.00
2014-11-8,46.0,42.9,38.8,38.0,33.0,28.4,82,68,59,29.93,29.71,21,7,22,0.00
2014-11-9,46.2,42.3,38.4,34.1,30.0,26.8,74,62,53,29.93,29.76,24,6,24,0.00
2014-11-10,62.4,49.9,40.8,43.5,38.4,33.0,76,65,49,29.85,29.62,18,4,20,0.00
2014-11-11,56.4,45.0,34.8,45.1,36.5,25.1,87,73,57,30.06,29.63,22,8,22,0.00
2014-11-12,34.8,31.2,29.6,25.7,21.1,18.3,70,66,61,30.25,30.06,21,5,21,0.00
2014-11-13,33.8,29.5,27.6,21.8,19.3,15.7,76,66,57,30.22,30.18,21,6,21,0.00
2014-11-14,30.0,24.8,0.0,19.5,15.8,-9.2,70,65,61,30.29,30.20,18,5,18,0.00
2014-11-15,33.6,31.3,29.1,18.6,17.3,16.1,59,56,53,30.27,30.23,10,4,10,0.00
2014-11-19,30.7,28.0,21.9,22.4,18.3,14.2,75,67,61,29.90,29.66,21,8,21,0.06
2014-11-20,72.1,26.9,0.0,51.8,11.5,-10.9,61,52,43,30.08,29.89,24,7,24,0.00
2014-11-21,36.6,29.6,25.1,17.4,13.5,10.4,59,51,39,30.43,30.19,13,5,14,0.00
2014-11-22,52.3,40.9,28.2,46.4,35.0,14.0,89,80,52,30.19,29.86,22,8,22,0.00
2014-11-23,53.7,50.4,48.0,48.5,45.7,42.0,92,84,76,29.88,29.10,20,5,20,0.00
2014-11-24,49.4,49.2,49.2,47.1,47.0,47.0,92,92,92,29.11,29.08,4,0,4,0.00
2014-12-2,31.1,30.7,30.3,27.4,27.0,26.4,88,86,84,30.05,30.00,11,8,11,0.00
2014-12-3,37.9,33.3,30.5,29.0,26.2,24.5,88,75,60,30.17,29.99,17,6,17,0.00